Wrangell, AK

6:37 PM AKST on February 10, 2016 (GMT -0900)
Wrangell | | Change Station
CLOSE
Current Station
Airport
Location: Wrangell,
Elevation: 43 ft
Nearby Weather Stations

Elev 43 ft 56.48 °N, 132.37 °W | Updated 21 minutes ago

Overcast
Overcast
48 °F
Feels Like 48 °F
N
17
Wind Variable Wind from SE
Gusts 21 mph

Today
High -- | Low -- °F
--% Chance of Precip.
Yesterday
High -- | Low -- °F
Precip. -- in
Pressure 29.82 in
Visibility 10.0 miles
Clouds Few 500 ft
Mostly Cloudy 5000 ft
Overcast 8000 ft
Dew Point 39 °F
Humidity 71%
Rainfall 0.29 in
Snow Depth Not available.
7:28 AM 4:40 PM
Waxing Crescent, 9% visible
METAR PAWG 110316Z 13015G18KT 10SM FEW005 BKN050 OVC080 09/04 A2982 RMK AO1 WEA:-RA MJ
Pressure 29.82 in
Visibility 10.0 miles
Clouds Few 500 ft
Mostly Cloudy 5000 ft
Overcast 8000 ft
Dew Point 39 °F
Humidity 71%
Rainfall 0.29 in
Snow Depth Not available.
7:28 AM 4:40 PM
Waxing Crescent, 9% visible
METAR PAWG 110316Z 13015G18KT 10SM FEW005 BKN050 OVC080 09/04 A2982 RMK AO1 WEA:-RA MJ

10-Day Weather Forecast

Almanac

Astronomy

Feb. 10, 2016 Rise Set
Actual Time
Civil Twilight
Nautical Twilight
Astronomical Twilight
Moon
Length of Visible Light
Length of Day
Tomorrow will be .
, % of the Moon is Illuminated

Today's Extremes

State Highs State Lows

Community

WunderPhotos

Upload Photos

1,891,994 photos uploaded!

WunderBlog® & News

Nearby

Air Quality

  Air Quality AQ Index Pollutant
Not available.

Snow Depth

Station Depth Elevation

Earthquake Activity

City Distance Mag. Time & Date
Minimum magnitude displayed is 2.5.

Coastal Water Temperatures

Place Temperature

Stations

Nearby Weather Stations

Station Location Temp. Windchill Dew Point Humidity Wind Precip. Elev Updated Type
                   

Watches & Warnings

There are currently no watches in effect.